NOO3687 KCVG-KMIA
Flight info
| Callsign | NOO3687 |
|---|---|
| Flight time | 2h 4m |
| Altitude | 35000 |
| Route | SILKS6 TRFWA WINNA/N0463F340 NOTWO/N0456F360 HONID FROGZ4 |
| Aircraft | B752/M-SDE3FGHIM3RWXY/LB1 |
Departure
| Time | 2026-04-30 12:28 |
|---|---|
| Airport | Cincinnati Northern Kentucky International Airport (KCVG) |
Arrival
| Time | 2026-04-30 14:33 |
|---|---|
| Airport | Miami International Airport (KMIA) |
| Time | Latitude | Longitude | Altitude | Speed | Heading |
|---|---|---|---|---|---|
| 2026-04-30 12:03 | 39.03318 | -84.65098 | 880 ft | 0 kts | 56° |
| 2026-04-30 12:16 | 39.03318 | -84.65099 | 880 ft | 0 kts | 56° |
| 2026-04-30 12:17 | 39.03305 | -84.65124 | 880 ft | 1 kts | 56° |
| 2026-04-30 12:17 | 39.03296 | -84.65138 | 880 ft | 2 kts | 40° |
| 2026-04-30 12:17 | 39.03285 | -84.65147 | 880 ft | 2 kts | 24° |
| 2026-04-30 12:18 | 39.03268 | -84.65153 | 881 ft | 2 kts | 4° |
| 2026-04-30 12:18 | 39.03254 | -84.65153 | 882 ft | 2 kts | 358° |
| 2026-04-30 12:18 | 39.03241 | -84.65153 | 883 ft | 0 kts | 1° |
| 2026-04-30 12:18 | 39.03236 | -84.65153 | 883 ft | 0 kts | 0° |
| 2026-04-30 12:21 | 39.03251 | -84.65153 | 882 ft | 5 kts | 0° |
| 2026-04-30 12:22 | 39.03298 | -84.65152 | 880 ft | 8 kts | 2° |
| 2026-04-30 12:22 | 39.03362 | -84.65149 | 877 ft | 9 kts | 358° |
| 2026-04-30 12:22 | 39.03424 | -84.65152 | 876 ft | 8 kts | 357° |
| 2026-04-30 12:22 | 39.03484 | -84.65155 | 875 ft | 8 kts | 359° |
| 2026-04-30 12:23 | 39.03539 | -84.65154 | 875 ft | 7 kts | 6° |
| 2026-04-30 12:23 | 39.03568 | -84.65126 | 875 ft | 4 kts | 69° |
| 2026-04-30 12:23 | 39.03574 | -84.65090 | 876 ft | 5 kts | 85° |
| 2026-04-30 12:23 | 39.03588 | -84.65029 | 878 ft | 8 kts | 54° |
| 2026-04-30 12:24 | 39.03647 | -84.65001 | 880 ft | 11 kts | 3° |
| 2026-04-30 12:24 | 39.03743 | -84.64999 | 882 ft | 16 kts | 360° |
| 2026-04-30 12:24 | 39.03870 | -84.64999 | 886 ft | 20 kts | 360° |
| 2026-04-30 12:24 | 39.04022 | -84.64998 | 892 ft | 23 kts | 360° |
| 2026-04-30 12:25 | 39.04192 | -84.64999 | 897 ft | 26 kts | 359° |
| 2026-04-30 12:25 | 39.04343 | -84.64998 | 894 ft | 21 kts | 360° |
| 2026-04-30 12:25 | 39.04462 | -84.65018 | 894 ft | 14 kts | 307° |
| 2026-04-30 12:25 | 39.04469 | -84.65178 | 891 ft | 21 kts | 270° |
| 2026-04-30 12:26 | 39.04487 | -84.65297 | 886 ft | 1 kts | 324° |
| 2026-04-30 12:26 | 39.04511 | -84.65305 | 885 ft | 4 kts | 359° |
| 2026-04-30 12:26 | 39.04543 | -84.65304 | 885 ft | 4 kts | 2° |
| 2026-04-30 12:26 | 39.04577 | -84.65301 | 885 ft | 4 kts | 4° |
| 2026-04-30 12:27 | 39.04611 | -84.65300 | 885 ft | 4 kts | 355° |
| 2026-04-30 12:27 | 39.04628 | -84.65319 | 885 ft | 4 kts | 290° |
| 2026-04-30 12:27 | 39.04632 | -84.65378 | 883 ft | 9 kts | 270° |
| 2026-04-30 12:27 | 39.04633 | -84.65640 | 875 ft | 59 kts | 270° |
| 2026-04-30 12:28 | 39.04634 | -84.66454 | 864 ft | 122 kts | 271° |
| 2026-04-30 12:28 | 39.04634 | -84.67790 | 895 ft | 174 kts | 275° |
| 2026-04-30 12:28 | 39.04628 | -84.69445 | 1385 ft | 192 kts | 272° |
| 2026-04-30 12:28 | 39.04612 | -84.71059 | 2383 ft | 178 kts | 272° |
| 2026-04-30 12:29 | 39.04613 | -84.72716 | 2516 ft | 193 kts | 276° |
| 2026-04-30 12:29 | 39.04598 | -84.74560 | 2561 ft | 216 kts | 274° |
| 2026-04-30 12:29 | 39.04603 | -84.76563 | 2879 ft | 227 kts | 274° |
| 2026-04-30 12:29 | 39.04585 | -84.78574 | 3392 ft | 228 kts | 276° |
| 2026-04-30 12:30 | 39.04610 | -84.80623 | 3829 ft | 234 kts | 275° |
| 2026-04-30 12:30 | 39.04613 | -84.82744 | 4305 ft | 239 kts | 274° |
| 2026-04-30 12:30 | 39.04612 | -84.84965 | 4474 ft | 257 kts | 275° |
| 2026-04-30 12:30 | 39.04374 | -84.87227 | 5128 ft | 262 kts | 253° |
| 2026-04-30 12:31 | 39.03336 | -84.89188 | 5746 ft | 274 kts | 227° |
| 2026-04-30 12:31 | 39.01723 | -84.90370 | 6162 ft | 289 kts | 199° |
| 2026-04-30 12:31 | 38.99723 | -84.90556 | 6809 ft | 293 kts | 176° |
| 2026-04-30 12:31 | 38.97706 | -84.90243 | 7217 ft | 301 kts | 175° |
| 2026-04-30 12:32 | 38.95634 | -84.89932 | 7886 ft | 298 kts | 176° |
| 2026-04-30 12:32 | 38.93592 | -84.89632 | 8441 ft | 300 kts | 176° |
| 2026-04-30 12:32 | 38.91501 | -84.89331 | 8880 ft | 306 kts | 176° |
| 2026-04-30 12:32 | 38.89396 | -84.89027 | 9485 ft | 305 kts | 176° |
| 2026-04-30 12:33 | 38.87309 | -84.88726 | 10022 ft | 306 kts | 178° |
| 2026-04-30 12:33 | 38.85176 | -84.88421 | 10385 ft | 315 kts | 178° |
| 2026-04-30 12:33 | 38.82936 | -84.88107 | 10404 ft | 336 kts | 178° |
| 2026-04-30 12:33 | 38.80566 | -84.87730 | 10419 ft | 358 kts | 173° |
| 2026-04-30 12:34 | 38.78066 | -84.86890 | 10494 ft | 379 kts | 167° |
| 2026-04-30 12:34 | 38.75560 | -84.85937 | 11149 ft | 378 kts | 168° |
| 2026-04-30 12:34 | 38.73037 | -84.84991 | 11688 ft | 381 kts | 168° |
| 2026-04-30 12:34 | 38.70499 | -84.84042 | 12259 ft | 382 kts | 169° |
| 2026-04-30 12:35 | 38.67945 | -84.83089 | 12775 ft | 385 kts | 169° |
| 2026-04-30 12:35 | 38.65380 | -84.82133 | 13254 ft | 388 kts | 169° |
| 2026-04-30 12:35 | 38.62785 | -84.81165 | 13745 ft | 391 kts | 169° |
| 2026-04-30 12:35 | 38.60196 | -84.80200 | 14215 ft | 393 kts | 169° |
| 2026-04-30 12:36 | 38.57542 | -84.79212 | 14654 ft | 396 kts | 170° |
| 2026-04-30 12:36 | 38.54925 | -84.78239 | 15082 ft | 399 kts | 170° |
| 2026-04-30 12:36 | 38.52256 | -84.77246 | 15507 ft | 401 kts | 170° |
| 2026-04-30 12:36 | 38.49565 | -84.76246 | 15936 ft | 404 kts | 170° |
| 2026-04-30 12:37 | 38.46845 | -84.75474 | 16314 ft | 398 kts | 181° |
| 2026-04-30 12:37 | 38.44119 | -84.75463 | 16706 ft | 392 kts | 191° |
| 2026-04-30 12:37 | 38.41432 | -84.75673 | 17130 ft | 393 kts | 191° |
| 2026-04-30 12:37 | 38.38703 | -84.75890 | 17490 ft | 395 kts | 191° |
| 2026-04-30 12:38 | 38.35960 | -84.76117 | 17870 ft | 397 kts | 191° |
| 2026-04-30 12:38 | 38.33194 | -84.76352 | 18241 ft | 400 kts | 192° |
| 2026-04-30 12:38 | 38.30438 | -84.76588 | 18605 ft | 402 kts | 192° |
| 2026-04-30 12:38 | 38.27627 | -84.76831 | 18969 ft | 404 kts | 192° |
| 2026-04-30 12:39 | 38.24823 | -84.77073 | 19373 ft | 405 kts | 192° |
| 2026-04-30 12:39 | 38.22036 | -84.77314 | 19697 ft | 408 kts | 192° |
| 2026-04-30 12:39 | 38.19206 | -84.77560 | 20056 ft | 410 kts | 192° |
| 2026-04-30 12:39 | 38.16344 | -84.77807 | 20400 ft | 412 kts | 192° |
| 2026-04-30 12:40 | 38.13515 | -84.78051 | 20738 ft | 414 kts | 192° |
| 2026-04-30 12:40 | 38.10615 | -84.78301 | 21113 ft | 415 kts | 192° |
| 2026-04-30 12:40 | 38.07745 | -84.78548 | 21439 ft | 418 kts | 192° |
| 2026-04-30 12:40 | 38.04842 | -84.78799 | 21759 ft | 420 kts | 192° |
| 2026-04-30 12:41 | 38.01911 | -84.78909 | 22081 ft | 428 kts | 185° |
| 2026-04-30 12:41 | 37.98947 | -84.78492 | 22393 ft | 437 kts | 179° |
| 2026-04-30 12:41 | 37.95943 | -84.77908 | 22741 ft | 438 kts | 179° |
| 2026-04-30 12:41 | 37.92934 | -84.77328 | 23048 ft | 440 kts | 179° |
| 2026-04-30 12:42 | 37.89909 | -84.76739 | 23377 ft | 442 kts | 179° |
| 2026-04-30 12:42 | 37.86863 | -84.76145 | 23653 ft | 444 kts | 179° |
| 2026-04-30 12:42 | 37.83809 | -84.75548 | 23949 ft | 446 kts | 179° |
| 2026-04-30 12:42 | 37.80781 | -84.74957 | 24229 ft | 448 kts | 179° |
| 2026-04-30 12:43 | 37.77688 | -84.74352 | 24510 ft | 450 kts | 179° |
| 2026-04-30 12:43 | 37.74585 | -84.73746 | 24763 ft | 453 kts | 179° |
| 2026-04-30 12:43 | 37.71473 | -84.73138 | 25011 ft | 455 kts | 179° |
| 2026-04-30 12:43 | 37.68371 | -84.72532 | 25300 ft | 457 kts | 179° |
| 2026-04-30 12:44 | 37.65219 | -84.71918 | 25559 ft | 459 kts | 180° |
| 2026-04-30 12:44 | 37.62072 | -84.71304 | 25826 ft | 461 kts | 180° |
| 2026-04-30 12:44 | 37.58921 | -84.70691 | 26075 ft | 463 kts | 180° |
| 2026-04-30 12:44 | 37.55759 | -84.70077 | 26288 ft | 466 kts | 180° |
| 2026-04-30 12:45 | 37.52551 | -84.69452 | 26634 ft | 466 kts | 180° |
| 2026-04-30 12:45 | 37.49340 | -84.68830 | 26809 ft | 470 kts | 180° |
| 2026-04-30 12:45 | 37.46117 | -84.68205 | 27056 ft | 471 kts | 180° |
| 2026-04-30 12:45 | 37.42880 | -84.67577 | 27314 ft | 473 kts | 180° |
| 2026-04-30 12:46 | 37.39653 | -84.66952 | 27547 ft | 475 kts | 180° |
| 2026-04-30 12:46 | 37.36360 | -84.66315 | 27797 ft | 477 kts | 180° |
| 2026-04-30 12:46 | 37.33129 | -84.65691 | 28030 ft | 479 kts | 180° |
| 2026-04-30 12:46 | 37.29839 | -84.65054 | 28266 ft | 480 kts | 180° |
| 2026-04-30 12:47 | 37.26520 | -84.64414 | 28496 ft | 482 kts | 180° |
| 2026-04-30 12:47 | 37.23211 | -84.63776 | 28763 ft | 483 kts | 180° |
| 2026-04-30 12:47 | 37.19905 | -84.63139 | 28936 ft | 486 kts | 180° |
| 2026-04-30 12:47 | 37.16581 | -84.62501 | 29145 ft | 488 kts | 180° |
| 2026-04-30 12:48 | 37.13233 | -84.61857 | 29351 ft | 491 kts | 180° |
| 2026-04-30 12:48 | 37.09829 | -84.61202 | 29533 ft | 493 kts | 180° |
| 2026-04-30 12:48 | 37.06449 | -84.60553 | 29785 ft | 494 kts | 180° |
| 2026-04-30 12:48 | 37.03046 | -84.59901 | 29979 ft | 496 kts | 180° |
| 2026-04-30 12:49 | 36.99684 | -84.59255 | 30265 ft | 496 kts | 181° |
| 2026-04-30 12:49 | 36.96267 | -84.58601 | 30441 ft | 498 kts | 181° |
| 2026-04-30 12:49 | 36.92866 | -84.57951 | 30691 ft | 499 kts | 181° |
| 2026-04-30 12:49 | 36.89434 | -84.57295 | 30918 ft | 500 kts | 181° |
| 2026-04-30 12:50 | 36.85995 | -84.56637 | 31246 ft | 498 kts | 181° |
| 2026-04-30 12:50 | 36.82612 | -84.55991 | 31550 ft | 497 kts | 181° |
| 2026-04-30 12:50 | 36.79198 | -84.55341 | 31824 ft | 497 kts | 181° |
| 2026-04-30 12:50 | 36.75807 | -84.54694 | 32123 ft | 497 kts | 181° |
| 2026-04-30 12:51 | 36.72375 | -84.54041 | 32417 ft | 496 kts | 182° |
| 2026-04-30 12:51 | 36.69003 | -84.53402 | 32614 ft | 498 kts | 182° |
| 2026-04-30 12:51 | 36.65559 | -84.52747 | 32948 ft | 497 kts | 182° |
| 2026-04-30 12:51 | 36.62189 | -84.52107 | 33258 ft | 496 kts | 182° |
| 2026-04-30 12:52 | 36.58783 | -84.51462 | 33555 ft | 496 kts | 182° |
| 2026-04-30 12:52 | 36.55390 | -84.50820 | 33765 ft | 498 kts | 182° |
| 2026-04-30 12:52 | 36.51958 | -84.50170 | 34058 ft | 497 kts | 182° |
| 2026-04-30 12:52 | 36.48570 | -84.49528 | 34390 ft | 496 kts | 182° |
| 2026-04-30 12:53 | 36.45195 | -84.48892 | 34620 ft | 497 kts | 182° |
| 2026-04-30 12:53 | 36.41766 | -84.48246 | 34881 ft | 497 kts | 182° |
| 2026-04-30 12:53 | 36.38369 | -84.47604 | 35060 ft | 498 kts | 183° |
| 2026-04-30 12:53 | 36.34950 | -84.46961 | 35056 ft | 497 kts | 183° |
| 2026-04-30 12:54 | 36.28147 | -84.45679 | 35058 ft | 495 kts | 183° |
| 2026-04-30 12:54 | 36.21386 | -84.44408 | 35058 ft | 497 kts | 182° |
| 2026-04-30 12:55 | 36.14627 | -84.43447 | 35068 ft | 482 kts | 191° |
| 2026-04-30 12:55 | 36.07919 | -84.43183 | 35059 ft | 484 kts | 189° |
| 2026-04-30 12:56 | 36.01227 | -84.42774 | 35060 ft | 485 kts | 188° |
| 2026-04-30 12:56 | 35.94485 | -84.42318 | 35058 ft | 488 kts | 188° |
| 2026-04-30 12:57 | 35.87764 | -84.41846 | 35044 ft | 488 kts | 188° |
| 2026-04-30 12:57 | 35.80979 | -84.41367 | 35038 ft | 488 kts | 188° |
| 2026-04-30 12:58 | 35.74231 | -84.40889 | 35038 ft | 488 kts | 189° |
| 2026-04-30 12:58 | 35.67507 | -84.40413 | 35038 ft | 488 kts | 189° |
| 2026-04-30 12:59 | 35.60722 | -84.39934 | 35039 ft | 490 kts | 188° |
| 2026-04-30 12:59 | 35.53952 | -84.39454 | 35040 ft | 490 kts | 189° |
| 2026-04-30 13:00 | 35.47135 | -84.38974 | 35036 ft | 490 kts | 189° |
| 2026-04-30 13:00 | 35.40370 | -84.38500 | 35025 ft | 493 kts | 189° |
| 2026-04-30 13:01 | 35.33559 | -84.38019 | 35014 ft | 492 kts | 189° |
| 2026-04-30 13:01 | 35.26717 | -84.37540 | 35016 ft | 494 kts | 189° |
| 2026-04-30 13:02 | 35.19880 | -84.37060 | 35016 ft | 494 kts | 189° |
| 2026-04-30 13:02 | 35.13363 | -84.36604 | 35016 ft | 494 kts | 189° |
| 2026-04-30 13:03 | 34.98980 | -84.35601 | 35018 ft | 496 kts | 189° |
| 2026-04-30 13:04 | 34.92022 | -84.35117 | 35019 ft | 496 kts | 189° |
| 2026-04-30 13:04 | 34.85085 | -84.34637 | 34986 ft | 497 kts | 190° |
| 2026-04-30 13:05 | 34.78160 | -84.34157 | 34971 ft | 497 kts | 190° |
| 2026-04-30 13:06 | 34.67830 | -84.33442 | 34953 ft | 498 kts | 190° |
| 2026-04-30 13:06 | 34.60887 | -84.32964 | 34954 ft | 499 kts | 190° |
| 2026-04-30 13:07 | 34.54461 | -84.32522 | 34954 ft | 500 kts | 190° |
| 2026-04-30 13:07 | 34.47396 | -84.32034 | 34955 ft | 500 kts | 190° |
| 2026-04-30 13:08 | 34.40492 | -84.31561 | 34956 ft | 500 kts | 190° |
| 2026-04-30 13:08 | 34.33522 | -84.31081 | 34957 ft | 497 kts | 190° |
| 2026-04-30 13:09 | 34.26627 | -84.30613 | 34958 ft | 501 kts | 190° |
| 2026-04-30 13:09 | 34.19673 | -84.30059 | 34952 ft | 503 kts | 188° |
| 2026-04-30 13:09 | 34.16206 | -84.29974 | 34951 ft | 487 kts | 197° |
| 2026-04-30 13:10 | 34.12795 | -84.30245 | 34934 ft | 486 kts | 197° |
| 2026-04-30 13:10 | 34.06033 | -84.30642 | 34915 ft | 489 kts | 196° |
| 2026-04-30 13:11 | 33.99259 | -84.30943 | 34914 ft | 489 kts | 195° |
| 2026-04-30 13:11 | 33.93162 | -84.31187 | 34915 ft | 490 kts | 195° |
| 2026-04-30 13:12 | 33.87165 | -84.31416 | 34906 ft | 490 kts | 195° |
| 2026-04-30 13:12 | 33.80318 | -84.31676 | 34921 ft | 492 kts | 195° |
| 2026-04-30 13:13 | 33.70124 | -84.32055 | 34926 ft | 492 kts | 195° |
| 2026-04-30 13:14 | 33.59797 | -84.32439 | 34927 ft | 492 kts | 195° |
| 2026-04-30 13:14 | 33.49511 | -84.32822 | 34944 ft | 495 kts | 195° |
| 2026-04-30 13:15 | 33.39174 | -84.33203 | 34956 ft | 494 kts | 195° |
| 2026-04-30 13:16 | 33.32317 | -84.33458 | 34958 ft | 496 kts | 194° |
| 2026-04-30 13:16 | 33.25351 | -84.33714 | 34957 ft | 495 kts | 194° |
| 2026-04-30 13:17 | 33.14951 | -84.34098 | 34959 ft | 498 kts | 194° |
| 2026-04-30 13:18 | 33.04568 | -84.34480 | 34958 ft | 500 kts | 194° |
| 2026-04-30 13:18 | 32.94092 | -84.34862 | 34954 ft | 502 kts | 194° |
| 2026-04-30 13:19 | 32.87119 | -84.35117 | 34941 ft | 501 kts | 194° |
| 2026-04-30 13:19 | 32.80160 | -84.35371 | 34943 ft | 503 kts | 193° |
| 2026-04-30 13:20 | 32.73119 | -84.35628 | 34944 ft | 504 kts | 193° |
| 2026-04-30 13:20 | 32.66551 | -84.35866 | 34944 ft | 505 kts | 193° |
| 2026-04-30 13:21 | 32.59287 | -84.36130 | 34945 ft | 506 kts | 193° |
| 2026-04-30 13:22 | 32.48819 | -84.36509 | 34946 ft | 507 kts | 193° |
| 2026-04-30 13:22 | 32.38339 | -84.36888 | 34939 ft | 509 kts | 192° |
| 2026-04-30 13:23 | 32.27729 | -84.37271 | 35267 ft | 511 kts | 192° |
| 2026-04-30 13:24 | 32.20787 | -84.37519 | 35802 ft | 509 kts | 193° |
| 2026-04-30 13:24 | 32.13611 | -84.37777 | 35933 ft | 509 kts | 193° |
| 2026-04-30 13:25 | 31.99548 | -84.38282 | 35935 ft | 508 kts | 193° |
| 2026-04-30 13:26 | 31.81849 | -84.38914 | 35925 ft | 508 kts | 192° |
| 2026-04-30 13:28 | 31.64133 | -84.39186 | 35959 ft | 521 kts | 181° |
| 2026-04-30 13:28 | 31.53302 | -84.36613 | 35955 ft | 528 kts | 176° |
| 2026-04-30 13:29 | 31.39307 | -84.33088 | 35958 ft | 527 kts | 176° |
| 2026-04-30 13:31 | 31.21392 | -84.28575 | 35961 ft | 525 kts | 176° |
| 2026-04-30 13:32 | 31.03524 | -84.24092 | 35964 ft | 524 kts | 175° |
| 2026-04-30 13:33 | 30.89270 | -84.20528 | 35962 ft | 523 kts | 175° |
| 2026-04-30 13:34 | 30.78609 | -84.17866 | 35952 ft | 520 kts | 175° |
| 2026-04-30 13:35 | 30.64405 | -84.14333 | 35952 ft | 519 kts | 174° |
| 2026-04-30 13:36 | 30.50207 | -84.10810 | 35957 ft | 519 kts | 174° |
| 2026-04-30 13:36 | 30.39822 | -84.08164 | 35958 ft | 522 kts | 169° |
| 2026-04-30 13:37 | 30.29865 | -84.02616 | 35964 ft | 532 kts | 154° |
| 2026-04-30 13:38 | 30.20216 | -83.96246 | 35967 ft | 533 kts | 154° |
| 2026-04-30 13:39 | 30.07380 | -83.87759 | 35969 ft | 531 kts | 154° |
| 2026-04-30 13:40 | 29.97797 | -83.81435 | 35971 ft | 531 kts | 154° |
| 2026-04-30 13:40 | 29.91381 | -83.77210 | 35972 ft | 531 kts | 154° |
| 2026-04-30 13:41 | 29.85086 | -83.73071 | 35962 ft | 531 kts | 154° |
| 2026-04-30 13:41 | 29.78601 | -83.68813 | 35964 ft | 531 kts | 154° |
| 2026-04-30 13:42 | 29.72064 | -83.64528 | 35965 ft | 532 kts | 153° |
| 2026-04-30 13:42 | 29.62380 | -83.58190 | 35967 ft | 532 kts | 153° |
| 2026-04-30 13:43 | 29.55978 | -83.54010 | 35968 ft | 532 kts | 153° |
| 2026-04-30 13:43 | 29.49500 | -83.49784 | 35969 ft | 531 kts | 153° |
| 2026-04-30 13:44 | 29.43064 | -83.45593 | 35970 ft | 532 kts | 153° |
| 2026-04-30 13:44 | 29.36699 | -83.41454 | 35971 ft | 532 kts | 153° |
| 2026-04-30 13:45 | 29.27055 | -83.35196 | 35973 ft | 532 kts | 154° |
| 2026-04-30 13:46 | 29.20381 | -83.31597 | 35962 ft | 527 kts | 160° |
| 2026-04-30 13:46 | 29.13694 | -83.28200 | 35964 ft | 529 kts | 160° |
| 2026-04-30 13:47 | 29.07031 | -83.24822 | 35965 ft | 528 kts | 160° |
| 2026-04-30 13:47 | 29.00309 | -83.21420 | 35966 ft | 528 kts | 160° |
| 2026-04-30 13:48 | 28.93581 | -83.18019 | 35967 ft | 528 kts | 160° |
| 2026-04-30 13:48 | 28.86991 | -83.14693 | 35957 ft | 528 kts | 160° |
| 2026-04-30 13:49 | 28.80424 | -83.11383 | 35958 ft | 527 kts | 160° |
| 2026-04-30 13:49 | 28.73809 | -83.08054 | 35961 ft | 526 kts | 160° |
| 2026-04-30 13:50 | 28.67648 | -83.04958 | 35966 ft | 527 kts | 159° |
| 2026-04-30 13:50 | 28.57606 | -82.99920 | 35975 ft | 527 kts | 159° |
| 2026-04-30 13:51 | 28.51449 | -82.96835 | 35979 ft | 526 kts | 159° |
| 2026-04-30 13:51 | 28.45321 | -82.93769 | 35983 ft | 525 kts | 159° |
| 2026-04-30 13:52 | 28.38481 | -82.90353 | 35989 ft | 526 kts | 159° |
| 2026-04-30 13:52 | 28.31864 | -82.87051 | 35993 ft | 526 kts | 159° |
| 2026-04-30 13:53 | 28.25251 | -82.83756 | 35996 ft | 525 kts | 159° |
| 2026-04-30 13:53 | 28.18578 | -82.80436 | 35997 ft | 524 kts | 159° |
| 2026-04-30 13:54 | 28.11942 | -82.77139 | 35997 ft | 525 kts | 159° |
| 2026-04-30 13:54 | 28.05242 | -82.73814 | 35998 ft | 524 kts | 159° |
| 2026-04-30 13:55 | 28.02303 | -82.72472 | 36001 ft | 521 kts | 165° |
| 2026-04-30 13:55 | 27.91688 | -82.69932 | 35998 ft | 514 kts | 173° |
| 2026-04-30 13:56 | 27.84673 | -82.68518 | 35989 ft | 515 kts | 173° |
| 2026-04-30 13:56 | 27.77636 | -82.67123 | 35990 ft | 515 kts | 173° |
| 2026-04-30 13:57 | 27.70604 | -82.65736 | 35991 ft | 515 kts | 173° |
| 2026-04-30 13:57 | 27.63580 | -82.64303 | 35995 ft | 515 kts | 173° |
| 2026-04-30 13:58 | 27.53057 | -82.62266 | 36007 ft | 515 kts | 172° |
| 2026-04-30 13:59 | 27.46110 | -82.60260 | 36013 ft | 516 kts | 168° |
| 2026-04-30 13:59 | 27.39241 | -82.58227 | 36013 ft | 516 kts | 168° |
| 2026-04-30 14:00 | 27.32306 | -82.56187 | 36014 ft | 516 kts | 168° |
| 2026-04-30 14:00 | 27.21933 | -82.53146 | 36015 ft | 516 kts | 168° |
| 2026-04-30 14:01 | 27.15219 | -82.51182 | 36015 ft | 515 kts | 167° |
| 2026-04-30 14:01 | 27.08319 | -82.49166 | 36016 ft | 514 kts | 167° |
| 2026-04-30 14:02 | 27.01401 | -82.47147 | 36018 ft | 514 kts | 167° |
| 2026-04-30 14:02 | 26.94591 | -82.44973 | 36019 ft | 515 kts | 160° |
| 2026-04-30 14:03 | 26.88346 | -82.41049 | 36016 ft | 516 kts | 141° |
| 2026-04-30 14:03 | 26.82860 | -82.35915 | 36010 ft | 515 kts | 139° |
| 2026-04-30 14:04 | 26.77428 | -82.30735 | 36004 ft | 514 kts | 139° |
| 2026-04-30 14:04 | 26.71997 | -82.25544 | 36004 ft | 513 kts | 139° |
| 2026-04-30 14:05 | 26.66647 | -82.20431 | 36005 ft | 510 kts | 139° |
| 2026-04-30 14:05 | 26.64009 | -82.17911 | 35995 ft | 494 kts | 139° |
| 2026-04-30 14:05 | 26.61585 | -82.15597 | 35998 ft | 482 kts | 139° |
| 2026-04-30 14:07 | 26.49879 | -82.04275 | 35322 ft | 493 kts | 136° |
| 2026-04-30 14:07 | 26.47369 | -82.01739 | 34720 ft | 492 kts | 136° |
| 2026-04-30 14:07 | 26.44869 | -81.99219 | 34130 ft | 490 kts | 136° |
| 2026-04-30 14:08 | 26.39866 | -81.94183 | 32975 ft | 486 kts | 136° |
| 2026-04-30 14:08 | 26.37353 | -81.91656 | 32408 ft | 485 kts | 136° |
| 2026-04-30 14:08 | 26.32347 | -81.86627 | 31310 ft | 487 kts | 136° |
| 2026-04-30 14:09 | 26.29865 | -81.84136 | 30795 ft | 489 kts | 136° |
| 2026-04-30 14:09 | 26.27350 | -81.81612 | 30119 ft | 493 kts | 135° |
| 2026-04-30 14:09 | 26.23081 | -81.75839 | 29344 ft | 470 kts | 117° |
| 2026-04-30 14:10 | 26.21532 | -81.72632 | 28731 ft | 467 kts | 114° |
| 2026-04-30 14:10 | 26.20072 | -81.69405 | 28130 ft | 464 kts | 114° |
| 2026-04-30 14:10 | 26.18630 | -81.66170 | 27536 ft | 462 kts | 114° |
| 2026-04-30 14:10 | 26.17229 | -81.62994 | 26958 ft | 459 kts | 114° |
| 2026-04-30 14:11 | 26.15839 | -81.59824 | 26384 ft | 457 kts | 114° |
| 2026-04-30 14:11 | 26.14454 | -81.56657 | 25816 ft | 454 kts | 114° |
| 2026-04-30 14:11 | 26.13081 | -81.53513 | 25255 ft | 451 kts | 114° |
| 2026-04-30 14:11 | 26.11713 | -81.50381 | 24697 ft | 448 kts | 114° |
| 2026-04-30 14:12 | 26.10356 | -81.47277 | 24144 ft | 446 kts | 115° |
| 2026-04-30 14:12 | 26.08999 | -81.44172 | 23593 ft | 443 kts | 115° |
| 2026-04-30 14:12 | 26.07666 | -81.41125 | 23193 ft | 436 kts | 115° |
| 2026-04-30 14:12 | 26.06787 | -81.39114 | 23116 ft | 427 kts | 115° |
| 2026-04-30 14:13 | 26.05070 | -81.35170 | 22505 ft | 424 kts | 115° |
| 2026-04-30 14:13 | 26.03788 | -81.32229 | 22003 ft | 421 kts | 115° |
| 2026-04-30 14:13 | 26.02523 | -81.29326 | 21495 ft | 419 kts | 115° |
| 2026-04-30 14:13 | 26.01270 | -81.26453 | 21027 ft | 416 kts | 115° |
| 2026-04-30 14:14 | 26.00009 | -81.23565 | 20519 ft | 414 kts | 115° |
| 2026-04-30 14:14 | 25.98751 | -81.20689 | 20080 ft | 410 kts | 115° |
| 2026-04-30 14:14 | 25.97516 | -81.17864 | 19624 ft | 407 kts | 115° |
| 2026-04-30 14:14 | 25.96283 | -81.15044 | 19192 ft | 403 kts | 115° |
| 2026-04-30 14:15 | 25.95061 | -81.12250 | 18671 ft | 402 kts | 115° |
| 2026-04-30 14:15 | 25.93846 | -81.09476 | 18269 ft | 401 kts | 115° |
| 2026-04-30 14:15 | 25.92613 | -81.06663 | 17773 ft | 399 kts | 115° |
| 2026-04-30 14:15 | 25.91427 | -81.03925 | 17374 ft | 394 kts | 112° |
| 2026-04-30 14:16 | 25.90424 | -81.01133 | 16921 ft | 391 kts | 109° |
| 2026-04-30 14:16 | 25.89464 | -80.98305 | 16449 ft | 389 kts | 109° |
| 2026-04-30 14:16 | 25.88510 | -80.95519 | 15993 ft | 386 kts | 110° |
| 2026-04-30 14:16 | 25.87552 | -80.92725 | 15555 ft | 383 kts | 110° |
| 2026-04-30 14:17 | 25.86603 | -80.89973 | 15107 ft | 380 kts | 110° |
| 2026-04-30 14:17 | 25.85656 | -80.87241 | 14645 ft | 378 kts | 109° |
| 2026-04-30 14:17 | 25.85026 | -80.84461 | 14439 ft | 365 kts | 94° |
| 2026-04-30 14:17 | 25.84999 | -80.81719 | 14439 ft | 347 kts | 85° |
| 2026-04-30 14:18 | 25.85114 | -80.79066 | 14287 ft | 338 kts | 85° |
| 2026-04-30 14:18 | 25.85243 | -80.76500 | 14133 ft | 329 kts | 84° |
| 2026-04-30 14:18 | 25.85532 | -80.71419 | 13382 ft | 329 kts | 84° |
| 2026-04-30 14:19 | 25.85830 | -80.66385 | 12630 ft | 327 kts | 84° |
| 2026-04-30 14:19 | 25.85976 | -80.63853 | 12197 ft | 327 kts | 84° |
| 2026-04-30 14:19 | 25.85873 | -80.61340 | 11784 ft | 329 kts | 101° |
| 2026-04-30 14:20 | 25.85116 | -80.58942 | 11347 ft | 331 kts | 116° |
| 2026-04-30 14:20 | 25.84051 | -80.56695 | 11007 ft | 327 kts | 118° |
| 2026-04-30 14:20 | 25.81981 | -80.52383 | 10746 ft | 308 kts | 118° |
| 2026-04-30 14:21 | 25.80979 | -80.50312 | 10592 ft | 305 kts | 118° |
| 2026-04-30 14:21 | 25.79968 | -80.48226 | 10451 ft | 305 kts | 118° |
| 2026-04-30 14:21 | 25.77984 | -80.44141 | 10172 ft | 292 kts | 118° |
| 2026-04-30 14:22 | 25.77029 | -80.42178 | 10058 ft | 288 kts | 118° |
| 2026-04-30 14:22 | 25.75118 | -80.38249 | 9786 ft | 287 kts | 118° |
| 2026-04-30 14:22 | 25.74170 | -80.36331 | 9616 ft | 288 kts | 119° |
| 2026-04-30 14:23 | 25.72217 | -80.32448 | 8916 ft | 288 kts | 120° |
| 2026-04-30 14:23 | 25.70554 | -80.28407 | 8167 ft | 289 kts | 97° |
| 2026-04-30 14:24 | 25.70635 | -80.24023 | 7591 ft | 286 kts | 88° |
| 2026-04-30 14:24 | 25.70747 | -80.21807 | 7208 ft | 287 kts | 87° |
| 2026-04-30 14:25 | 25.70995 | -80.17419 | 6691 ft | 280 kts | 87° |
| 2026-04-30 14:25 | 25.71261 | -80.13054 | 5996 ft | 279 kts | 85° |
| 2026-04-30 14:26 | 25.71647 | -80.08880 | 5694 ft | 267 kts | 85° |
| 2026-04-30 14:26 | 25.71837 | -80.06843 | 5528 ft | 267 kts | 85° |
| 2026-04-30 14:26 | 25.72892 | -80.03126 | 5426 ft | 244 kts | 45° |
| 2026-04-30 14:27 | 25.74292 | -80.02202 | 5438 ft | 229 kts | 12° |
| 2026-04-30 14:27 | 25.75818 | -80.02244 | 5275 ft | 223 kts | 342° |
| 2026-04-30 14:27 | 25.77310 | -80.02714 | 4795 ft | 223 kts | 343° |
| 2026-04-30 14:28 | 25.80118 | -80.03984 | 4204 ft | 216 kts | 319° |
| 2026-04-30 14:28 | 25.80905 | -80.05375 | 3997 ft | 214 kts | 278° |
| 2026-04-30 14:28 | 25.80648 | -80.06916 | 3739 ft | 205 kts | 236° |
| 2026-04-30 14:28 | 25.79789 | -80.08162 | 3483 ft | 202 kts | 242° |
| 2026-04-30 14:29 | 25.79441 | -80.11186 | 2992 ft | 191 kts | 266° |
| 2026-04-30 14:29 | 25.79346 | -80.13485 | 2570 ft | 166 kts | 266° |
| 2026-04-30 14:30 | 25.79191 | -80.17291 | 1876 ft | 143 kts | 266° |
| 2026-04-30 14:31 | 25.79102 | -80.19489 | 1486 ft | 143 kts | 267° |
| 2026-04-30 14:31 | 25.79012 | -80.21703 | 1093 ft | 143 kts | 266° |
| 2026-04-30 14:31 | 25.78968 | -80.22820 | 896 ft | 142 kts | 266° |
| 2026-04-30 14:32 | 25.78880 | -80.24966 | 506 ft | 140 kts | 266° |
| 2026-04-30 14:32 | 25.78834 | -80.26035 | 332 ft | 138 kts | 267° |
| 2026-04-30 14:32 | 25.78798 | -80.27097 | 143 ft | 136 kts | 266° |
| 2026-04-30 14:33 | 25.78751 | -80.28140 | 25 ft | 128 kts | 266° |
| 2026-04-30 14:33 | 25.78696 | -80.29429 | 16 ft | 38 kts | 267° |
| 2026-04-30 14:33 | 25.78700 | -80.29710 | 16 ft | 35 kts | 282° |
| 2026-04-30 14:34 | 25.78758 | -80.29809 | 16 ft | 8 kts | 7° |
| 2026-04-30 14:34 | 25.78787 | -80.29767 | 16 ft | 8 kts | 73° |
| 2026-04-30 14:34 | 25.78795 | -80.29703 | 16 ft | 8 kts | 88° |